KANB

Anniston Regional Airport

Anniston, Alabama, USA
METAR KANB 231553Z AUTO 09004KT 10SM CLR 23/17 A3038 RMK AO2 SLP281 T02330167
Observed Flight Rules
Feb-23 @ 15:53 UTC (42 minutes ago) Visual Flight Rules
Wind Visibility Clouds
90° at 4 knots 10 miles
  • Clear skies
Temperatures Readings
Current 23°C / 73°F
Dewpoint 17°C / 63°F
Humidity 69%
Altimeter 30.38" Hg
Pressure 1028.1 hPa
Elevation 183
METAR KANB 231553Z AUTO 09004KT 10SM CLR 23/17 A3038 RMK AO2 SLP281 T02330167
Observed Flight Rules
Feb-23 @ 15:53 UTC
(42 minutes ago)
VFR
Wind Visibility
90° at 4 knots 10 miles
Clouds
  • Clear skies
Temperature Dewpoint
23°C / 73°F 17°C / 63°F
Humidity Altimeter Pressure
69% 30.38" Hg 1028.1 hPa